sensor_id;sensor_type;location;lat;lon;timestamp;P1;durP1;ratioP1;P2;durP2;ratioP2
4595;SDS011;2310;49.978;8.742;2023-01-29T00:01:52;9.10;;;7.30;;
4595;SDS011;2310;49.978;8.742;2023-01-29T00:05:53;9.23;;;7.10;;
4595;SDS011;2310;49.978;8.742;2023-01-29T00:09:54;10.63;;;7.17;;
4595;SDS011;2310;49.978;8.742;2023-01-29T00:13:55;8.60;;;6.30;;
4595;SDS011;2310;49.978;8.742;2023-01-29T00:17:57;8.20;;;5.97;;
4595;SDS011;2310;49.978;8.742;2023-01-29T00:21:58;10.53;;;6.50;;
4595;SDS011;2310;49.978;8.742;2023-01-29T00:25:59;10.97;;;9.00;;
4595;SDS011;2310;49.978;8.742;2023-01-29T00:30:00;9.30;;;7.30;;
4595;SDS011;2310;49.978;8.742;2023-01-29T00:34:14;11.37;;;7.70;;
4595;SDS011;2310;49.978;8.742;2023-01-29T00:38:15;10.50;;;7.13;;
4595;SDS011;2310;49.978;8.742;2023-01-29T00:42:16;8.13;;;6.63;;
4595;SDS011;2310;49.978;8.742;2023-01-29T00:46:36;8.53;;;6.17;;
4595;SDS011;2310;49.978;8.742;2023-01-29T00:50:37;9.70;;;7.43;;
4595;SDS011;2310;49.978;8.742;2023-01-29T00:54:38;8.47;;;6.93;;
4595;SDS011;2310;49.978;8.742;2023-01-29T00:58:39;7.03;;;6.27;;
4595;SDS011;2310;49.978;8.742;2023-01-29T01:02:41;8.60;;;7.17;;
4595;SDS011;2310;49.978;8.742;2023-01-29T01:07:01;11.03;;;7.80;;
4595;SDS011;2310;49.978;8.742;2023-01-29T01:11:03;11.30;;;9.43;;
4595;SDS011;2310;49.978;8.742;2023-01-29T01:15:06;9.60;;;7.20;;
4595;SDS011;2310;49.978;8.742;2023-01-29T01:19:07;10.17;;;8.20;;
4595;SDS011;2310;49.978;8.742;2023-01-29T01:23:09;11.00;;;9.60;;
4595;SDS011;2310;49.978;8.742;2023-01-29T01:27:11;8.77;;;7.13;;
4595;SDS011;2310;49.978;8.742;2023-01-29T01:31:12;9.47;;;8.00;;
4595;SDS011;2310;49.978;8.742;2023-01-29T01:35:14;9.47;;;7.67;;
4595;SDS011;2310;49.978;8.742;2023-01-29T01:39:15;12.23;;;9.27;;
4595;SDS011;2310;49.978;8.742;2023-01-29T01:43:17;10.10;;;8.30;;
4595;SDS011;2310;49.978;8.742;2023-01-29T01:47:19;8.53;;;6.83;;
4595;SDS011;2310;49.978;8.742;2023-01-29T01:51:23;9.97;;;8.30;;
4595;SDS011;2310;49.978;8.742;2023-01-29T01:55:27;9.83;;;8.10;;
4595;SDS011;2310;49.978;8.742;2023-01-29T01:59:30;13.03;;;9.53;;
4595;SDS011;2310;49.978;8.742;2023-01-29T02:03:34;10.83;;;9.40;;
4595;SDS011;2310;49.978;8.742;2023-01-29T02:07:57;10.47;;;8.87;;
4595;SDS011;2310;49.978;8.742;2023-01-29T02:12:18;9.83;;;7.70;;
4595;SDS011;2310;49.978;8.742;2023-01-29T02:16:21;11.00;;;7.47;;
4595;SDS011;2310;49.978;8.742;2023-01-29T02:20:23;9.70;;;7.17;;
4595;SDS011;2310;49.978;8.742;2023-01-29T02:28:54;9.13;;;7.07;;
4595;SDS011;2310;49.978;8.742;2023-01-29T02:33:18;10.47;;;7.47;;
4595;SDS011;2310;49.978;8.742;2023-01-29T02:37:25;11.83;;;7.77;;
4595;SDS011;2310;49.978;8.742;2023-01-29T02:41:34;9.63;;;7.80;;
4595;SDS011;2310;49.978;8.742;2023-01-29T02:45:47;10.30;;;7.53;;
4595;SDS011;2310;49.978;8.742;2023-01-29T02:50:08;11.40;;;9.60;;
4595;SDS011;2310;49.978;8.742;2023-01-29T03:02:37;10.73;;;8.73;;
4595;SDS011;2310;49.978;8.742;2023-01-29T03:06:48;13.17;;;9.10;;
4595;SDS011;2310;49.978;8.742;2023-01-29T03:10:54;11.37;;;10.13;;
4595;SDS011;2310;49.978;8.742;2023-01-29T03:14:58;10.30;;;9.00;;
4595;SDS011;2310;49.978;8.742;2023-01-29T03:19:16;13.40;;;9.00;;
4595;SDS011;2310;49.978;8.742;2023-01-29T03:23:20;10.00;;;8.30;;
4595;SDS011;2310;49.978;8.742;2023-01-29T03:27:27;12.23;;;8.90;;
4595;SDS011;2310;49.978;8.742;2023-01-29T03:31:50;14.00;;;11.13;;
4595;SDS011;2310;49.978;8.742;2023-01-29T03:36:21;11.73;;;9.80;;
4595;SDS011;2310;49.978;8.742;2023-01-29T03:40:20;11.10;;;8.83;;
4595;SDS011;2310;49.978;8.742;2023-01-29T03:44:27;10.77;;;9.10;;
4595;SDS011;2310;49.978;8.742;2023-01-29T03:48:49;11.90;;;9.83;;
4595;SDS011;2310;49.978;8.742;2023-01-29T03:52:49;13.77;;;9.43;;
4595;SDS011;2310;49.978;8.742;2023-01-29T03:56:59;11.70;;;10.50;;
4595;SDS011;2310;49.978;8.742;2023-01-29T04:01:18;15.43;;;8.97;;
4595;SDS011;2310;49.978;8.742;2023-01-29T04:05:23;10.20;;;9.10;;
4595;SDS011;2310;49.978;8.742;2023-01-29T04:09:29;10.33;;;9.23;;
4595;SDS011;2310;49.978;8.742;2023-01-29T04:13:32;14.07;;;11.40;;
4595;SDS011;2310;49.978;8.742;2023-01-29T04:17:36;11.70;;;10.33;;
4595;SDS011;2310;49.978;8.742;2023-01-29T04:21:39;11.40;;;9.87;;
4595;SDS011;2310;49.978;8.742;2023-01-29T04:25:45;13.40;;;10.50;;
4595;SDS011;2310;49.978;8.742;2023-01-29T04:30:02;15.47;;;11.90;;
4595;SDS011;2310;49.978;8.742;2023-01-29T04:34:28;11.40;;;9.97;;
4595;SDS011;2310;49.978;8.742;2023-01-29T04:38:44;11.53;;;9.10;;
4595;SDS011;2310;49.978;8.742;2023-01-29T04:42:49;11.57;;;9.87;;
4595;SDS011;2310;49.978;8.742;2023-01-29T04:51:30;16.30;;;11.67;;
4595;SDS011;2310;49.978;8.742;2023-01-29T04:55:41;12.43;;;10.10;;
4595;SDS011;2310;49.978;8.742;2023-01-29T05:00:04;12.23;;;10.03;;
4595;SDS011;2310;49.978;8.742;2023-01-29T05:04:01;13.47;;;11.57;;
4595;SDS011;2310;49.978;8.742;2023-01-29T05:08:09;14.10;;;10.50;;
4595;SDS011;2310;49.978;8.742;2023-01-29T05:12:13;12.60;;;10.77;;
4595;SDS011;2310;49.978;8.742;2023-01-29T05:16:26;12.10;;;10.23;;
4595;SDS011;2310;49.978;8.742;2023-01-29T05:20:31;14.57;;;11.37;;
4595;SDS011;2310;49.978;8.742;2023-01-29T05:24:34;12.90;;;10.30;;
4595;SDS011;2310;49.978;8.742;2023-01-29T05:28:37;12.57;;;11.07;;
4595;SDS011;2310;49.978;8.742;2023-01-29T05:32:38;14.70;;;11.70;;
4595;SDS011;2310;49.978;8.742;2023-01-29T05:36:39;14.07;;;10.50;;
4595;SDS011;2310;49.978;8.742;2023-01-29T05:40:40;12.87;;;11.00;;
4595;SDS011;2310;49.978;8.742;2023-01-29T05:44:41;14.93;;;11.77;;
4595;SDS011;2310;49.978;8.742;2023-01-29T05:51:08;10.70;;;9.57;;
4595;SDS011;2310;49.978;8.742;2023-01-29T05:55:09;13.10;;;10.47;;
4595;SDS011;2310;49.978;8.742;2023-01-29T05:59:10;13.90;;;9.93;;
4595;SDS011;2310;49.978;8.742;2023-01-29T06:03:11;11.50;;;9.43;;
4595;SDS011;2310;49.978;8.742;2023-01-29T06:07:13;12.53;;;9.53;;
4595;SDS011;2310;49.978;8.742;2023-01-29T06:11:14;9.53;;;8.57;;
4595;SDS011;2310;49.978;8.742;2023-01-29T06:15:17;9.63;;;8.27;;
4595;SDS011;2310;49.978;8.742;2023-01-29T06:19:19;11.07;;;9.50;;
4595;SDS011;2310;49.978;8.742;2023-01-29T06:23:20;11.63;;;9.57;;
4595;SDS011;2310;49.978;8.742;2023-01-29T06:27:22;22.37;;;15.17;;
4595;SDS011;2310;49.978;8.742;2023-01-29T06:31:23;12.30;;;11.00;;
4595;SDS011;2310;49.978;8.742;2023-01-29T06:35:26;13.00;;;10.60;;
4595;SDS011;2310;49.978;8.742;2023-01-29T06:39:28;11.10;;;8.33;;
4595;SDS011;2310;49.978;8.742;2023-01-29T06:43:29;14.90;;;10.43;;
4595;SDS011;2310;49.978;8.742;2023-01-29T06:47:30;10.27;;;9.00;;
4595;SDS011;2310;49.978;8.742;2023-01-29T06:51:31;14.20;;;10.30;;
4595;SDS011;2310;49.978;8.742;2023-01-29T06:55:51;12.13;;;10.10;;
4595;SDS011;2310;49.978;8.742;2023-01-29T07:00:07;12.37;;;10.23;;
4595;SDS011;2310;49.978;8.742;2023-01-29T07:04:10;13.80;;;10.90;;
4595;SDS011;2310;49.978;8.742;2023-01-29T07:08:11;11.80;;;10.30;;
4595;SDS011;2310;49.978;8.742;2023-01-29T07:12:12;13.80;;;11.80;;
4595;SDS011;2310;49.978;8.742;2023-01-29T07:16:13;13.53;;;11.10;;
4595;SDS011;2310;49.978;8.742;2023-01-29T07:20:15;10.63;;;9.50;;
4595;SDS011;2310;49.978;8.742;2023-01-29T07:24:16;11.90;;;9.20;;
4595;SDS011;2310;49.978;8.742;2023-01-29T07:28:19;11.00;;;8.67;;
4595;SDS011;2310;49.978;8.742;2023-01-29T07:32:20;10.97;;;8.27;;
4595;SDS011;2310;49.978;8.742;2023-01-29T07:36:21;9.53;;;8.53;;
4595;SDS011;2310;49.978;8.742;2023-01-29T07:40:23;9.87;;;8.80;;
4595;SDS011;2310;49.978;8.742;2023-01-29T07:44:25;12.27;;;10.60;;
4595;SDS011;2310;49.978;8.742;2023-01-29T07:48:26;13.57;;;9.90;;
4595;SDS011;2310;49.978;8.742;2023-01-29T07:52:28;11.50;;;10.30;;
4595;SDS011;2310;49.978;8.742;2023-01-29T07:56:31;14.60;;;10.87;;
4595;SDS011;2310;49.978;8.742;2023-01-29T08:00:32;11.73;;;10.53;;
4595;SDS011;2310;49.978;8.742;2023-01-29T08:04:33;9.93;;;8.33;;
4595;SDS011;2310;49.978;8.742;2023-01-29T08:08:34;10.27;;;8.70;;
4595;SDS011;2310;49.978;8.742;2023-01-29T08:12:35;11.40;;;9.77;;
4595;SDS011;2310;49.978;8.742;2023-01-29T08:16:36;9.17;;;8.27;;
4595;SDS011;2310;49.978;8.742;2023-01-29T08:20:38;8.73;;;6.30;;
4595;SDS011;2310;49.978;8.742;2023-01-29T08:24:39;9.53;;;8.63;;
4595;SDS011;2310;49.978;8.742;2023-01-29T08:28:42;9.53;;;8.03;;
4595;SDS011;2310;49.978;8.742;2023-01-29T08:32:43;10.27;;;9.20;;
4595;SDS011;2310;49.978;8.742;2023-01-29T08:36:44;11.97;;;10.60;;
4595;SDS011;2310;49.978;8.742;2023-01-29T08:40:47;11.97;;;9.77;;
4595;SDS011;2310;49.978;8.742;2023-01-29T08:44:49;10.53;;;9.13;;
4595;SDS011;2310;49.978;8.742;2023-01-29T08:48:51;10.00;;;8.63;;
4595;SDS011;2310;49.978;8.742;2023-01-29T08:52:55;9.33;;;8.37;;
4595;SDS011;2310;49.978;8.742;2023-01-29T08:56:59;14.40;;;10.10;;
4595;SDS011;2310;49.978;8.742;2023-01-29T09:01:07;8.17;;;6.87;;
4595;SDS011;2310;49.978;8.742;2023-01-29T09:05:10;8.90;;;8.00;;
4595;SDS011;2310;49.978;8.742;2023-01-29T09:09:11;9.30;;;8.10;;
4595;SDS011;2310;49.978;8.742;2023-01-29T09:13:12;9.80;;;7.97;;
4595;SDS011;2310;49.978;8.742;2023-01-29T09:17:13;9.40;;;8.40;;
4595;SDS011;2310;49.978;8.742;2023-01-29T09:21:15;10.07;;;9.00;;
4595;SDS011;2310;49.978;8.742;2023-01-29T09:25:16;10.97;;;9.77;;
4595;SDS011;2310;49.978;8.742;2023-01-29T09:29:18;10.80;;;8.67;;
4595;SDS011;2310;49.978;8.742;2023-01-29T09:33:19;12.57;;;9.50;;
4595;SDS011;2310;49.978;8.742;2023-01-29T09:37:21;11.73;;;10.53;;
4595;SDS011;2310;49.978;8.742;2023-01-29T09:45:37;11.97;;;10.67;;
4595;SDS011;2310;49.978;8.742;2023-01-29T09:49:46;11.47;;;10.27;;
4595;SDS011;2310;49.978;8.742;2023-01-29T09:58:10;12.90;;;10.27;;
4595;SDS011;2310;49.978;8.742;2023-01-29T10:06:40;11.03;;;9.53;;
4595;SDS011;2310;49.978;8.742;2023-01-29T10:11:00;13.70;;;12.10;;
4595;SDS011;2310;49.978;8.742;2023-01-29T10:15:36;16.60;;;12.57;;
4595;SDS011;2310;49.978;8.742;2023-01-29T10:19:58;12.23;;;10.93;;
4595;SDS011;2310;49.978;8.742;2023-01-29T10:24:10;13.97;;;11.90;;
4595;SDS011;2310;49.978;8.742;2023-01-29T10:28:19;16.50;;;11.67;;
4595;SDS011;2310;49.978;8.742;2023-01-29T10:32:22;13.73;;;9.97;;
4595;SDS011;2310;49.978;8.742;2023-01-29T10:40:39;11.50;;;10.07;;
4595;SDS011;2310;49.978;8.742;2023-01-29T10:49:19;12.23;;;10.47;;
4595;SDS011;2310;49.978;8.742;2023-01-29T10:58:21;14.00;;;11.93;;
4595;SDS011;2310;49.978;8.742;2023-01-29T11:02:20;12.43;;;11.17;;
4595;SDS011;2310;49.978;8.742;2023-01-29T11:06:23;17.17;;;12.97;;
4595;SDS011;2310;49.978;8.742;2023-01-29T11:10:35;17.77;;;13.80;;
4595;SDS011;2310;49.978;8.742;2023-01-29T11:14:48;12.73;;;11.43;;
4595;SDS011;2310;49.978;8.742;2023-01-29T11:18:58;12.53;;;10.97;;
4595;SDS011;2310;49.978;8.742;2023-01-29T11:23:01;14.03;;;11.63;;
4595;SDS011;2310;49.978;8.742;2023-01-29T11:27:02;12.20;;;10.53;;
4595;SDS011;2310;49.978;8.742;2023-01-29T11:31:28;13.83;;;11.80;;
4595;SDS011;2310;49.978;8.742;2023-01-29T11:35:26;16.83;;;14.50;;
4595;SDS011;2310;49.978;8.742;2023-01-29T11:39:30;16.13;;;14.53;;
4595;SDS011;2310;49.978;8.742;2023-01-29T11:43:32;16.90;;;15.20;;
4595;SDS011;2310;49.978;8.742;2023-01-29T11:47:33;15.13;;;13.53;;
4595;SDS011;2310;49.978;8.742;2023-01-29T11:51:34;19.00;;;17.10;;
4595;SDS011;2310;49.978;8.742;2023-01-29T11:55:38;13.63;;;12.23;;
4595;SDS011;2310;49.978;8.742;2023-01-29T11:59:48;13.50;;;12.10;;
4595;SDS011;2310;49.978;8.742;2023-01-29T12:03:51;13.70;;;12.20;;
4595;SDS011;2310;49.978;8.742;2023-01-29T12:07:57;13.73;;;11.80;;
4595;SDS011;2310;49.978;8.742;2023-01-29T12:12:44;15.00;;;12.50;;
4595;SDS011;2310;49.978;8.742;2023-01-29T12:20:38;14.80;;;13.23;;
4595;SDS011;2310;49.978;8.742;2023-01-29T12:24:55;16.30;;;12.97;;
4595;SDS011;2310;49.978;8.742;2023-01-29T12:41:56;14.30;;;12.60;;
4595;SDS011;2310;49.978;8.742;2023-01-29T12:45:58;12.63;;;11.33;;
4595;SDS011;2310;49.978;8.742;2023-01-29T12:54:30;13.80;;;11.70;;
4595;SDS011;2310;49.978;8.742;2023-01-29T12:58:34;14.50;;;12.20;;
4595;SDS011;2310;49.978;8.742;2023-01-29T13:02:44;12.30;;;11.00;;
4595;SDS011;2310;49.978;8.742;2023-01-29T13:06:52;13.97;;;11.27;;
4595;SDS011;2310;49.978;8.742;2023-01-29T13:10:55;15.73;;;13.03;;
4595;SDS011;2310;49.978;8.742;2023-01-29T13:19:24;12.43;;;10.93;;
4595;SDS011;2310;49.978;8.742;2023-01-29T13:23:35;11.97;;;10.67;;
4595;SDS011;2310;49.978;8.742;2023-01-29T13:27:42;10.87;;;9.77;;
4595;SDS011;2310;49.978;8.742;2023-01-29T13:31:46;12.13;;;10.60;;
4595;SDS011;2310;49.978;8.742;2023-01-29T13:35:49;15.97;;;14.43;;
4595;SDS011;2310;49.978;8.742;2023-01-29T13:39:54;19.63;;;14.60;;
4595;SDS011;2310;49.978;8.742;2023-01-29T13:43:57;13.47;;;12.03;;
4595;SDS011;2310;49.978;8.742;2023-01-29T13:48:09;12.73;;;11.40;;
4595;SDS011;2310;49.978;8.742;2023-01-29T13:56:45;11.50;;;10.20;;
4595;SDS011;2310;49.978;8.742;2023-01-29T14:00:59;21.00;;;14.30;;
4595;SDS011;2310;49.978;8.742;2023-01-29T14:13:38;13.77;;;11.73;;
4595;SDS011;2310;49.978;8.742;2023-01-29T14:22:14;11.00;;;9.80;;
4595;SDS011;2310;49.978;8.742;2023-01-29T14:30:33;10.23;;;9.13;;
4595;SDS011;2310;49.978;8.742;2023-01-29T14:34:45;15.03;;;12.23;;
4595;SDS011;2310;49.978;8.742;2023-01-29T14:38:49;12.17;;;10.97;;
4595;SDS011;2310;49.978;8.742;2023-01-29T14:42:55;11.97;;;10.67;;
4595;SDS011;2310;49.978;8.742;2023-01-29T14:46:59;13.63;;;12.23;;
4595;SDS011;2310;49.978;8.742;2023-01-29T14:51:08;16.23;;;11.70;;
4595;SDS011;2310;49.978;8.742;2023-01-29T14:55:14;15.20;;;11.40;;
4595;SDS011;2310;49.978;8.742;2023-01-29T14:59:33;16.70;;;12.40;;
4595;SDS011;2310;49.978;8.742;2023-01-29T15:03:42;15.03;;;11.40;;
4595;SDS011;2310;49.978;8.742;2023-01-29T15:07:56;20.53;;;16.13;;
4595;SDS011;2310;49.978;8.742;2023-01-29T15:16:41;15.03;;;12.07;;
4595;SDS011;2310;49.978;8.742;2023-01-29T15:21:00;12.13;;;10.80;;
4595;SDS011;2310;49.978;8.742;2023-01-29T15:25:14;11.63;;;10.43;;
4595;SDS011;2310;49.978;8.742;2023-01-29T15:29:22;14.53;;;13.03;;
4595;SDS011;2310;49.978;8.742;2023-01-29T15:33:26;14.53;;;12.20;;
4595;SDS011;2310;49.978;8.742;2023-01-29T15:37:33;14.10;;;10.83;;
4595;SDS011;2310;49.978;8.742;2023-01-29T15:41:32;12.60;;;11.00;;
4595;SDS011;2310;49.978;8.742;2023-01-29T15:45:34;12.67;;;11.23;;
4595;SDS011;2310;49.978;8.742;2023-01-29T15:49:37;14.27;;;11.90;;
4595;SDS011;2310;49.978;8.742;2023-01-29T15:53:41;14.37;;;11.70;;
4595;SDS011;2310;49.978;8.742;2023-01-29T15:57:44;15.00;;;10.53;;
4595;SDS011;2310;49.978;8.742;2023-01-29T16:01:45;13.50;;;10.33;;
4595;SDS011;2310;49.978;8.742;2023-01-29T16:05:47;14.37;;;12.37;;
4595;SDS011;2310;49.978;8.742;2023-01-29T16:09:49;18.37;;;15.50;;
4595;SDS011;2310;49.978;8.742;2023-01-29T16:13:52;13.83;;;11.00;;
4595;SDS011;2310;49.978;8.742;2023-01-29T16:17:54;16.60;;;12.30;;
4595;SDS011;2310;49.978;8.742;2023-01-29T16:21:59;13.27;;;11.53;;
4595;SDS011;2310;49.978;8.742;2023-01-29T16:26:07;20.50;;;16.83;;
4595;SDS011;2310;49.978;8.742;2023-01-29T16:30:14;35.80;;;31.83;;
4595;SDS011;2310;49.978;8.742;2023-01-29T16:34:24;22.57;;;18.03;;
4595;SDS011;2310;49.978;8.742;2023-01-29T16:38:29;19.10;;;17.20;;
4595;SDS011;2310;49.978;8.742;2023-01-29T16:42:34;15.43;;;13.87;;
4595;SDS011;2310;49.978;8.742;2023-01-29T16:46:43;18.10;;;14.60;;
4595;SDS011;2310;49.978;8.742;2023-01-29T16:50:47;19.83;;;16.37;;
4595;SDS011;2310;49.978;8.742;2023-01-29T16:54:50;15.25;;;12.35;;
4595;SDS011;2310;49.978;8.742;2023-01-29T16:58:52;15.87;;;14.27;;
4595;SDS011;2310;49.978;8.742;2023-01-29T17:03:03;16.20;;;14.17;;
4595;SDS011;2310;49.978;8.742;2023-01-29T17:07:02;16.17;;;13.77;;
4595;SDS011;2310;49.978;8.742;2023-01-29T17:11:04;17.97;;;14.47;;
4595;SDS011;2310;49.978;8.742;2023-01-29T17:15:22;16.80;;;12.73;;
4595;SDS011;2310;49.978;8.742;2023-01-29T17:19:26;15.43;;;12.87;;
4595;SDS011;2310;49.978;8.742;2023-01-29T17:23:29;18.97;;;12.80;;
4595;SDS011;2310;49.978;8.742;2023-01-29T17:27:30;15.13;;;12.37;;
4595;SDS011;2310;49.978;8.742;2023-01-29T17:31:32;16.33;;;12.57;;
4595;SDS011;2310;49.978;8.742;2023-01-29T17:35:33;18.73;;;16.00;;
4595;SDS011;2310;49.978;8.742;2023-01-29T17:39:35;19.90;;;15.57;;
4595;SDS011;2310;49.978;8.742;2023-01-29T17:43:36;27.67;;;21.30;;
4595;SDS011;2310;49.978;8.742;2023-01-29T17:47:37;30.30;;;27.00;;
4595;SDS011;2310;49.978;8.742;2023-01-29T17:51:38;24.10;;;19.20;;
4595;SDS011;2310;49.978;8.742;2023-01-29T17:55:40;21.60;;;16.10;;
4595;SDS011;2310;49.978;8.742;2023-01-29T17:59:41;32.70;;;20.63;;
4595;SDS011;2310;49.978;8.742;2023-01-29T18:03:44;29.37;;;21.50;;
4595;SDS011;2310;49.978;8.742;2023-01-29T18:07:45;27.57;;;19.60;;
4595;SDS011;2310;49.978;8.742;2023-01-29T18:11:48;27.90;;;22.33;;
4595;SDS011;2310;49.978;8.742;2023-01-29T18:15:50;31.13;;;21.00;;
4595;SDS011;2310;49.978;8.742;2023-01-29T18:19:52;43.07;;;26.80;;
4595;SDS011;2310;49.978;8.742;2023-01-29T18:23:55;32.40;;;25.00;;
4595;SDS011;2310;49.978;8.742;2023-01-29T18:27:56;39.23;;;26.60;;
4595;SDS011;2310;49.978;8.742;2023-01-29T18:31:57;28.13;;;22.23;;
4595;SDS011;2310;49.978;8.742;2023-01-29T18:35:59;27.80;;;20.97;;
4595;SDS011;2310;49.978;8.742;2023-01-29T18:40:00;25.20;;;16.60;;
4595;SDS011;2310;49.978;8.742;2023-01-29T18:44:01;28.00;;;18.87;;
4595;SDS011;2310;49.978;8.742;2023-01-29T18:48:04;30.80;;;18.50;;
4595;SDS011;2310;49.978;8.742;2023-01-29T18:52:05;28.20;;;20.33;;
4595;SDS011;2310;49.978;8.742;2023-01-29T18:56:08;26.27;;;20.33;;
4595;SDS011;2310;49.978;8.742;2023-01-29T19:00:10;23.43;;;18.30;;
4595;SDS011;2310;49.978;8.742;2023-01-29T19:04:12;24.70;;;17.97;;
4595;SDS011;2310;49.978;8.742;2023-01-29T19:08:13;26.63;;;17.00;;
4595;SDS011;2310;49.978;8.742;2023-01-29T19:12:15;29.17;;;19.47;;
4595;SDS011;2310;49.978;8.742;2023-01-29T19:16:17;26.00;;;18.40;;
4595;SDS011;2310;49.978;8.742;2023-01-29T19:20:18;22.63;;;16.90;;
4595;SDS011;2310;49.978;8.742;2023-01-29T19:24:20;21.77;;;16.60;;
4595;SDS011;2310;49.978;8.742;2023-01-29T19:28:22;22.47;;;16.30;;
4595;SDS011;2310;49.978;8.742;2023-01-29T19:32:24;22.90;;;16.90;;
4595;SDS011;2310;49.978;8.742;2023-01-29T19:36:31;22.30;;;17.87;;
4595;SDS011;2310;49.978;8.742;2023-01-29T19:40:33;24.40;;;16.63;;
4595;SDS011;2310;49.978;8.742;2023-01-29T19:44:35;22.60;;;16.23;;
4595;SDS011;2310;49.978;8.742;2023-01-29T19:48:39;23.17;;;16.00;;
4595;SDS011;2310;49.978;8.742;2023-01-29T19:52:40;21.20;;;16.43;;
4595;SDS011;2310;49.978;8.742;2023-01-29T19:56:44;22.20;;;16.60;;
4595;SDS011;2310;49.978;8.742;2023-01-29T20:00:46;24.40;;;14.80;;
4595;SDS011;2310;49.978;8.742;2023-01-29T20:04:51;24.33;;;16.57;;
4595;SDS011;2310;49.978;8.742;2023-01-29T20:08:52;22.50;;;16.50;;
4595;SDS011;2310;49.978;8.742;2023-01-29T20:12:54;20.93;;;15.70;;
4595;SDS011;2310;49.978;8.742;2023-01-29T20:16:56;24.50;;;16.33;;
4595;SDS011;2310;49.978;8.742;2023-01-29T20:20:57;23.63;;;17.20;;
4595;SDS011;2310;49.978;8.742;2023-01-29T20:24:59;25.67;;;16.70;;
4595;SDS011;2310;49.978;8.742;2023-01-29T20:29:01;21.93;;;16.07;;
4595;SDS011;2310;49.978;8.742;2023-01-29T20:33:08;21.10;;;17.03;;
4595;SDS011;2310;49.978;8.742;2023-01-29T20:37:10;18.93;;;16.00;;
4595;SDS011;2310;49.978;8.742;2023-01-29T20:41:12;23.10;;;17.63;;
4595;SDS011;2310;49.978;8.742;2023-01-29T20:45:16;22.20;;;16.83;;
4595;SDS011;2310;49.978;8.742;2023-01-29T20:49:18;23.80;;;18.10;;
4595;SDS011;2310;49.978;8.742;2023-01-29T20:53:19;24.87;;;20.20;;
4595;SDS011;2310;49.978;8.742;2023-01-29T20:57:21;21.50;;;16.77;;
4595;SDS011;2310;49.978;8.742;2023-01-29T21:01:22;21.87;;;16.17;;
4595;SDS011;2310;49.978;8.742;2023-01-29T21:05:23;28.40;;;19.83;;
4595;SDS011;2310;49.978;8.742;2023-01-29T21:09:24;23.37;;;18.40;;
4595;SDS011;2310;49.978;8.742;2023-01-29T21:13:26;24.03;;;17.60;;
4595;SDS011;2310;49.978;8.742;2023-01-29T21:17:28;26.73;;;18.57;;
4595;SDS011;2310;49.978;8.742;2023-01-29T21:21:29;26.37;;;18.70;;
4595;SDS011;2310;49.978;8.742;2023-01-29T21:25:30;23.50;;;17.07;;
4595;SDS011;2310;49.978;8.742;2023-01-29T21:29:31;25.33;;;18.70;;
4595;SDS011;2310;49.978;8.742;2023-01-29T21:33:33;25.43;;;17.83;;
4595;SDS011;2310;49.978;8.742;2023-01-29T21:37:34;24.10;;;19.40;;
4595;SDS011;2310;49.978;8.742;2023-01-29T21:41:37;22.00;;;16.60;;
4595;SDS011;2310;49.978;8.742;2023-01-29T21:45:57;20.53;;;17.03;;
4595;SDS011;2310;49.978;8.742;2023-01-29T21:50:00;29.80;;;19.80;;
4595;SDS011;2310;49.978;8.742;2023-01-29T21:54:08;24.53;;;18.10;;
4595;SDS011;2310;49.978;8.742;2023-01-29T21:58:10;23.40;;;17.40;;
4595;SDS011;2310;49.978;8.742;2023-01-29T22:02:13;24.37;;;18.63;;
4595;SDS011;2310;49.978;8.742;2023-01-29T22:06:15;26.00;;;18.33;;
4595;SDS011;2310;49.978;8.742;2023-01-29T22:10:16;25.97;;;17.90;;
4595;SDS011;2310;49.978;8.742;2023-01-29T22:14:20;25.07;;;19.17;;
4595;SDS011;2310;49.978;8.742;2023-01-29T22:18:21;20.80;;;17.07;;
4595;SDS011;2310;49.978;8.742;2023-01-29T22:22:22;24.97;;;18.80;;
4595;SDS011;2310;49.978;8.742;2023-01-29T22:26:24;23.43;;;18.97;;
4595;SDS011;2310;49.978;8.742;2023-01-29T22:30:25;26.77;;;19.70;;
4595;SDS011;2310;49.978;8.742;2023-01-29T22:34:27;23.40;;;19.17;;
4595;SDS011;2310;49.978;8.742;2023-01-29T22:38:28;26.43;;;19.90;;
4595;SDS011;2310;49.978;8.742;2023-01-29T22:42:31;23.93;;;18.70;;
4595;SDS011;2310;49.978;8.742;2023-01-29T22:46:32;26.13;;;18.90;;
4595;SDS011;2310;49.978;8.742;2023-01-29T22:50:33;24.80;;;17.63;;
4595;SDS011;2310;49.978;8.742;2023-01-29T22:54:38;28.43;;;19.30;;
4595;SDS011;2310;49.978;8.742;2023-01-29T22:58:40;23.47;;;18.03;;
4595;SDS011;2310;49.978;8.742;2023-01-29T23:02:41;24.10;;;17.80;;
4595;SDS011;2310;49.978;8.742;2023-01-29T23:06:43;24.93;;;18.43;;
4595;SDS011;2310;49.978;8.742;2023-01-29T23:10:44;25.97;;;19.63;;
4595;SDS011;2310;49.978;8.742;2023-01-29T23:14:45;27.33;;;17.63;;
4595;SDS011;2310;49.978;8.742;2023-01-29T23:18:50;31.10;;;19.50;;
4595;SDS011;2310;49.978;8.742;2023-01-29T23:22:54;21.83;;;17.50;;
4595;SDS011;2310;49.978;8.742;2023-01-29T23:26:55;25.67;;;19.27;;
4595;SDS011;2310;49.978;8.742;2023-01-29T23:31:15;22.53;;;15.77;;
4595;SDS011;2310;49.978;8.742;2023-01-29T23:35:16;25.13;;;17.43;;
4595;SDS011;2310;49.978;8.742;2023-01-29T23:39:17;24.47;;;17.77;;
4595;SDS011;2310;49.978;8.742;2023-01-29T23:43:20;26.33;;;19.37;;
4595;SDS011;2310;49.978;8.742;2023-01-29T23:47:21;24.90;;;17.60;;
4595;SDS011;2310;49.978;8.742;2023-01-29T23:51:22;24.53;;;18.57;;
4595;SDS011;2310;49.978;8.742;2023-01-29T23:55:23;26.10;;;17.70;;
4595;SDS011;2310;49.978;8.742;2023-01-29T23:59:28;24.93;;;17.40;;
